sensor_id;sensor_type;location;lat;lon;timestamp;P1;durP1;ratioP1;P2;durP2;ratioP2
57327;SDS011;43162;51.040;18.244;2023-03-25T00:00:14;7.50;;;3.80;;
57327;SDS011;43162;51.040;18.244;2023-03-25T00:02:42;7.30;;;3.20;;
57327;SDS011;43162;51.040;18.244;2023-03-25T00:05:09;5.20;;;3.20;;
57327;SDS011;43162;51.040;18.244;2023-03-25T00:07:37;4.00;;;2.70;;
57327;SDS011;43162;51.040;18.244;2023-03-25T00:10:03;8.00;;;3.10;;
57327;SDS011;43162;51.040;18.244;2023-03-25T00:12:29;8.40;;;3.30;;
57327;SDS011;43162;51.040;18.244;2023-03-25T00:14:55;6.70;;;3.20;;
57327;SDS011;43162;51.040;18.244;2023-03-25T00:17:23;5.40;;;3.50;;
57327;SDS011;43162;51.040;18.244;2023-03-25T00:19:59;5.00;;;3.20;;
57327;SDS011;43162;51.040;18.244;2023-03-25T00:22:26;7.40;;;3.00;;
57327;SDS011;43162;51.040;18.244;2023-03-25T00:24:52;5.70;;;3.00;;
57327;SDS011;43162;51.040;18.244;2023-03-25T00:27:18;4.80;;;2.80;;
57327;SDS011;43162;51.040;18.244;2023-03-25T00:29:44;6.80;;;3.40;;
57327;SDS011;43162;51.040;18.244;2023-03-25T00:32:10;5.10;;;3.50;;
57327;SDS011;43162;51.040;18.244;2023-03-25T00:34:36;6.70;;;4.20;;
57327;SDS011;43162;51.040;18.244;2023-03-25T00:37:07;8.80;;;4.10;;
57327;SDS011;43162;51.040;18.244;2023-03-25T00:39:33;5.30;;;3.80;;
57327;SDS011;43162;51.040;18.244;2023-03-25T00:42:00;6.30;;;3.60;;
57327;SDS011;43162;51.040;18.244;2023-03-25T00:44:26;6.80;;;3.80;;
57327;SDS011;43162;51.040;18.244;2023-03-25T00:46:52;7.60;;;4.40;;
57327;SDS011;43162;51.040;18.244;2023-03-25T00:49:18;7.10;;;4.20;;
57327;SDS011;43162;51.040;18.244;2023-03-25T00:51:50;6.70;;;4.20;;
57327;SDS011;43162;51.040;18.244;2023-03-25T00:54:16;6.50;;;3.60;;
57327;SDS011;43162;51.040;18.244;2023-03-25T00:56:42;5.50;;;3.80;;
57327;SDS011;43162;51.040;18.244;2023-03-25T00:59:08;7.00;;;3.90;;
57327;SDS011;43162;51.040;18.244;2023-03-25T01:01:34;7.30;;;3.70;;
57327;SDS011;43162;51.040;18.244;2023-03-25T01:04:04;7.30;;;3.50;;
57327;SDS011;43162;51.040;18.244;2023-03-25T01:06:37;5.90;;;3.90;;
57327;SDS011;43162;51.040;18.244;2023-03-25T01:09:09;7.60;;;4.10;;
57327;SDS011;43162;51.040;18.244;2023-03-25T01:11:41;6.70;;;4.40;;
57327;SDS011;43162;51.040;18.244;2023-03-25T01:14:10;6.70;;;4.10;;
57327;SDS011;43162;51.040;18.244;2023-03-25T01:16:39;9.20;;;4.40;;
57327;SDS011;43162;51.040;18.244;2023-03-25T01:19:05;5.10;;;3.70;;
57327;SDS011;43162;51.040;18.244;2023-03-25T01:21:31;9.20;;;4.60;;
57327;SDS011;43162;51.040;18.244;2023-03-25T01:24:05;8.10;;;4.60;;
57327;SDS011;43162;51.040;18.244;2023-03-25T01:26:32;8.70;;;4.80;;
57327;SDS011;43162;51.040;18.244;2023-03-25T01:28:57;7.20;;;4.60;;
57327;SDS011;43162;51.040;18.244;2023-03-25T01:31:23;8.40;;;5.00;;
57327;SDS011;43162;51.040;18.244;2023-03-25T01:33:55;11.80;;;6.50;;
57327;SDS011;43162;51.040;18.244;2023-03-25T01:36:22;12.90;;;6.40;;
57327;SDS011;43162;51.040;18.244;2023-03-25T01:38:48;9.90;;;4.40;;
57327;SDS011;43162;51.040;18.244;2023-03-25T01:41:15;6.50;;;4.20;;
57327;SDS011;43162;51.040;18.244;2023-03-25T01:43:41;7.30;;;3.80;;
57327;SDS011;43162;51.040;18.244;2023-03-25T01:46:15;9.00;;;5.10;;
57327;SDS011;43162;51.040;18.244;2023-03-25T01:48:41;12.20;;;7.60;;
57327;SDS011;43162;51.040;18.244;2023-03-25T01:51:15;9.20;;;5.10;;
57327;SDS011;43162;51.040;18.244;2023-03-25T01:53:43;9.00;;;5.50;;
57327;SDS011;43162;51.040;18.244;2023-03-25T01:56:10;10.20;;;5.70;;
57327;SDS011;43162;51.040;18.244;2023-03-25T01:58:38;9.90;;;4.30;;
57327;SDS011;43162;51.040;18.244;2023-03-25T02:01:04;7.50;;;3.80;;
57327;SDS011;43162;51.040;18.244;2023-03-25T02:03:31;6.50;;;4.10;;
57327;SDS011;43162;51.040;18.244;2023-03-25T02:06:02;6.70;;;3.80;;
57327;SDS011;43162;51.040;18.244;2023-03-25T02:08:32;6.00;;;4.00;;
57327;SDS011;43162;51.040;18.244;2023-03-25T02:11:02;9.00;;;4.40;;
57327;SDS011;43162;51.040;18.244;2023-03-25T02:13:28;8.80;;;5.30;;
57327;SDS011;43162;51.040;18.244;2023-03-25T02:27:54;6.40;;;3.90;;
57327;SDS011;43162;51.040;18.244;2023-03-25T02:39:08;10.60;;;5.30;;
57327;SDS011;43162;51.040;18.244;2023-03-25T02:44:02;11.10;;;6.10;;
57327;SDS011;43162;51.040;18.244;2023-03-25T02:46:32;9.00;;;5.70;;
57327;SDS011;43162;51.040;18.244;2023-03-25T02:49:00;6.70;;;4.60;;
57327;SDS011;43162;51.040;18.244;2023-03-25T02:51:35;7.80;;;5.20;;
57327;SDS011;43162;51.040;18.244;2023-03-25T02:54:09;8.10;;;5.10;;
57327;SDS011;43162;51.040;18.244;2023-03-25T02:56:37;10.30;;;5.40;;
57327;SDS011;43162;51.040;18.244;2023-03-25T02:59:05;10.20;;;5.60;;
57327;SDS011;43162;51.040;18.244;2023-03-25T03:01:32;12.00;;;5.70;;
57327;SDS011;43162;51.040;18.244;2023-03-25T03:03:59;11.10;;;5.60;;
57327;SDS011;43162;51.040;18.244;2023-03-25T03:06:25;9.30;;;5.80;;
57327;SDS011;43162;51.040;18.244;2023-03-25T03:09:06;9.60;;;6.00;;
57327;SDS011;43162;51.040;18.244;2023-03-25T03:11:46;13.20;;;7.20;;
57327;SDS011;43162;51.040;18.244;2023-03-25T03:17:35;11.00;;;6.40;;
57327;SDS011;43162;51.040;18.244;2023-03-25T03:31:28;7.70;;;5.40;;
57327;SDS011;43162;51.040;18.244;2023-03-25T03:34:02;11.00;;;5.20;;
57327;SDS011;43162;51.040;18.244;2023-03-25T03:36:31;8.60;;;5.10;;
57327;SDS011;43162;51.040;18.244;2023-03-25T03:39:04;11.30;;;6.70;;
57327;SDS011;43162;51.040;18.244;2023-03-25T03:41:44;9.00;;;5.60;;
57327;SDS011;43162;51.040;18.244;2023-03-25T03:44:13;9.30;;;6.40;;
57327;SDS011;43162;51.040;18.244;2023-03-25T03:46:42;8.40;;;4.90;;
57327;SDS011;43162;51.040;18.244;2023-03-25T03:49:26;7.30;;;5.20;;
57327;SDS011;43162;51.040;18.244;2023-03-25T03:51:59;13.00;;;7.30;;
57327;SDS011;43162;51.040;18.244;2023-03-25T03:54:35;11.10;;;5.60;;
57327;SDS011;43162;51.040;18.244;2023-03-25T03:57:26;8.40;;;5.50;;
57327;SDS011;43162;51.040;18.244;2023-03-25T04:00:03;11.50;;;6.50;;
57327;SDS011;43162;51.040;18.244;2023-03-25T04:02:39;8.60;;;5.50;;
57327;SDS011;43162;51.040;18.244;2023-03-25T04:05:09;9.60;;;4.70;;
57327;SDS011;43162;51.040;18.244;2023-03-25T04:08:00;13.00;;;4.90;;
57327;SDS011;43162;51.040;18.244;2023-03-25T04:10:32;11.00;;;4.80;;
57327;SDS011;43162;51.040;18.244;2023-03-25T04:13:06;8.40;;;4.30;;
57327;SDS011;43162;51.040;18.244;2023-03-25T04:15:34;10.20;;;7.50;;
57327;SDS011;43162;51.040;18.244;2023-03-25T04:18:01;11.70;;;6.80;;
57327;SDS011;43162;51.040;18.244;2023-03-25T04:20:27;8.20;;;5.10;;
57327;SDS011;43162;51.040;18.244;2023-03-25T04:22:58;7.40;;;5.10;;
57327;SDS011;43162;51.040;18.244;2023-03-25T04:25:24;7.70;;;4.80;;
57327;SDS011;43162;51.040;18.244;2023-03-25T04:27:50;8.60;;;4.80;;
57327;SDS011;43162;51.040;18.244;2023-03-25T04:30:18;5.80;;;3.70;;
57327;SDS011;43162;51.040;18.244;2023-03-25T04:32:44;8.50;;;4.90;;
57327;SDS011;43162;51.040;18.244;2023-03-25T04:35:14;6.50;;;4.00;;
57327;SDS011;43162;51.040;18.244;2023-03-25T04:37:43;8.60;;;4.30;;
57327;SDS011;43162;51.040;18.244;2023-03-25T04:40:14;10.00;;;5.50;;
57327;SDS011;43162;51.040;18.244;2023-03-25T04:42:46;20.20;;;11.20;;
57327;SDS011;43162;51.040;18.244;2023-03-25T04:45:12;29.60;;;15.20;;
57327;SDS011;43162;51.040;18.244;2023-03-25T04:47:44;33.30;;;16.10;;
57327;SDS011;43162;51.040;18.244;2023-03-25T04:53:03;16.50;;;7.70;;
57327;SDS011;43162;51.040;18.244;2023-03-25T04:55:29;9.50;;;6.70;;
57327;SDS011;43162;51.040;18.244;2023-03-25T04:57:55;9.60;;;5.50;;
57327;SDS011;43162;51.040;18.244;2023-03-25T05:00:22;6.80;;;4.40;;
57327;SDS011;43162;51.040;18.244;2023-03-25T05:02:49;7.10;;;5.00;;
57327;SDS011;43162;51.040;18.244;2023-03-25T05:05:19;11.00;;;6.70;;
57327;SDS011;43162;51.040;18.244;2023-03-25T05:07:52;17.50;;;9.60;;
57327;SDS011;43162;51.040;18.244;2023-03-25T05:10:20;26.10;;;10.30;;
57327;SDS011;43162;51.040;18.244;2023-03-25T05:12:46;21.40;;;9.90;;
57327;SDS011;43162;51.040;18.244;2023-03-25T05:15:12;19.20;;;9.70;;
57327;SDS011;43162;51.040;18.244;2023-03-25T05:17:39;15.60;;;10.30;;
57327;SDS011;43162;51.040;18.244;2023-03-25T05:20:05;16.30;;;7.80;;
57327;SDS011;43162;51.040;18.244;2023-03-25T05:22:33;10.40;;;7.10;;
57327;SDS011;43162;51.040;18.244;2023-03-25T05:24:59;8.20;;;5.30;;
57327;SDS011;43162;51.040;18.244;2023-03-25T05:27:27;10.40;;;5.40;;
57327;SDS011;43162;51.040;18.244;2023-03-25T05:29:55;14.30;;;6.90;;
57327;SDS011;43162;51.040;18.244;2023-03-25T05:32:26;10.40;;;6.00;;
57327;SDS011;43162;51.040;18.244;2023-03-25T05:34:54;8.40;;;5.50;;
57327;SDS011;43162;51.040;18.244;2023-03-25T05:37:21;10.30;;;6.20;;
57327;SDS011;43162;51.040;18.244;2023-03-25T05:39:46;11.40;;;5.40;;
57327;SDS011;43162;51.040;18.244;2023-03-25T05:42:12;12.10;;;5.40;;
57327;SDS011;43162;51.040;18.244;2023-03-25T05:44:39;13.00;;;5.40;;
57327;SDS011;43162;51.040;18.244;2023-03-25T05:47:18;7.90;;;4.60;;
57327;SDS011;43162;51.040;18.244;2023-03-25T05:49:47;7.40;;;5.50;;
57327;SDS011;43162;51.040;18.244;2023-03-25T05:52:14;10.80;;;7.00;;
57327;SDS011;43162;51.040;18.244;2023-03-25T05:54:41;12.00;;;7.40;;
57327;SDS011;43162;51.040;18.244;2023-03-25T05:57:09;15.90;;;9.90;;
57327;SDS011;43162;51.040;18.244;2023-03-25T05:59:36;15.50;;;10.80;;
57327;SDS011;43162;51.040;18.244;2023-03-25T06:02:04;19.40;;;11.90;;
57327;SDS011;43162;51.040;18.244;2023-03-25T06:04:32;12.90;;;8.10;;
57327;SDS011;43162;51.040;18.244;2023-03-25T06:07:05;10.30;;;5.50;;
57327;SDS011;43162;51.040;18.244;2023-03-25T06:09:34;8.90;;;5.90;;
57327;SDS011;43162;51.040;18.244;2023-03-25T06:12:01;7.90;;;5.70;;
57327;SDS011;43162;51.040;18.244;2023-03-25T06:14:28;10.00;;;6.70;;
57327;SDS011;43162;51.040;18.244;2023-03-25T06:16:54;7.80;;;5.30;;
57327;SDS011;43162;51.040;18.244;2023-03-25T06:19:21;8.50;;;6.20;;
57327;SDS011;43162;51.040;18.244;2023-03-25T06:21:51;10.90;;;5.20;;
57327;SDS011;43162;51.040;18.244;2023-03-25T06:24:17;6.20;;;4.90;;
57327;SDS011;43162;51.040;18.244;2023-03-25T06:26:43;7.20;;;5.10;;
57327;SDS011;43162;51.040;18.244;2023-03-25T06:29:09;9.10;;;4.40;;
57327;SDS011;43162;51.040;18.244;2023-03-25T06:31:34;6.50;;;4.10;;
57327;SDS011;43162;51.040;18.244;2023-03-25T06:34:00;6.70;;;4.20;;
57327;SDS011;43162;51.040;18.244;2023-03-25T06:36:26;5.90;;;4.00;;
57327;SDS011;43162;51.040;18.244;2023-03-25T06:38:51;9.30;;;5.00;;
57327;SDS011;43162;51.040;18.244;2023-03-25T06:41:18;8.40;;;4.10;;
57327;SDS011;43162;51.040;18.244;2023-03-25T06:43:47;6.60;;;3.80;;
57327;SDS011;43162;51.040;18.244;2023-03-25T06:46:13;7.70;;;5.10;;
57327;SDS011;43162;51.040;18.244;2023-03-25T06:48:39;4.20;;;3.70;;
57327;SDS011;43162;51.040;18.244;2023-03-25T06:51:05;4.70;;;3.60;;
57327;SDS011;43162;51.040;18.244;2023-03-25T06:53:31;11.90;;;4.90;;
57327;SDS011;43162;51.040;18.244;2023-03-25T06:55:57;9.00;;;4.60;;
57327;SDS011;43162;51.040;18.244;2023-03-25T06:58:23;5.60;;;3.40;;
57327;SDS011;43162;51.040;18.244;2023-03-25T07:00:52;9.10;;;3.70;;
57327;SDS011;43162;51.040;18.244;2023-03-25T07:03:19;6.10;;;4.20;;
57327;SDS011;43162;51.040;18.244;2023-03-25T07:05:46;7.80;;;5.30;;
57327;SDS011;43162;51.040;18.244;2023-03-25T07:08:12;8.20;;;3.80;;
57327;SDS011;43162;51.040;18.244;2023-03-25T07:10:39;5.30;;;3.50;;
57327;SDS011;43162;51.040;18.244;2023-03-25T07:13:05;5.50;;;3.60;;
57327;SDS011;43162;51.040;18.244;2023-03-25T07:15:30;5.90;;;3.40;;
57327;SDS011;43162;51.040;18.244;2023-03-25T07:17:56;5.80;;;3.50;;
57327;SDS011;43162;51.040;18.244;2023-03-25T07:20:22;3.60;;;2.70;;
57327;SDS011;43162;51.040;18.244;2023-03-25T07:22:47;4.20;;;2.70;;
57327;SDS011;43162;51.040;18.244;2023-03-25T07:25:13;5.80;;;3.30;;
57327;SDS011;43162;51.040;18.244;2023-03-25T07:27:39;4.60;;;3.80;;
57327;SDS011;43162;51.040;18.244;2023-03-25T07:30:05;5.00;;;3.30;;
57327;SDS011;43162;51.040;18.244;2023-03-25T07:32:31;7.80;;;3.40;;
57327;SDS011;43162;51.040;18.244;2023-03-25T07:34:57;8.60;;;4.70;;
57327;SDS011;43162;51.040;18.244;2023-03-25T07:37:22;5.80;;;3.30;;
57327;SDS011;43162;51.040;18.244;2023-03-25T07:39:48;4.40;;;3.00;;
57327;SDS011;43162;51.040;18.244;2023-03-25T07:42:14;7.90;;;3.00;;
57327;SDS011;43162;51.040;18.244;2023-03-25T07:44:40;5.30;;;3.20;;
57327;SDS011;43162;51.040;18.244;2023-03-25T07:47:05;4.20;;;2.00;;
57327;SDS011;43162;51.040;18.244;2023-03-25T07:49:31;6.90;;;2.60;;
57327;SDS011;43162;51.040;18.244;2023-03-25T07:51:56;5.30;;;3.10;;
57327;SDS011;43162;51.040;18.244;2023-03-25T07:54:22;4.60;;;3.20;;
57327;SDS011;43162;51.040;18.244;2023-03-25T07:56:49;10.60;;;4.40;;
57327;SDS011;43162;51.040;18.244;2023-03-25T07:59:17;8.10;;;4.70;;
57327;SDS011;43162;51.040;18.244;2023-03-25T08:01:43;8.10;;;3.90;;
57327;SDS011;43162;51.040;18.244;2023-03-25T08:04:09;6.20;;;3.30;;
57327;SDS011;43162;51.040;18.244;2023-03-25T08:06:34;4.60;;;2.30;;
57327;SDS011;43162;51.040;18.244;2023-03-25T08:09:00;8.10;;;2.20;;
57327;SDS011;43162;51.040;18.244;2023-03-25T08:11:26;8.80;;;2.70;;
57327;SDS011;43162;51.040;18.244;2023-03-25T08:13:52;5.00;;;1.90;;
57327;SDS011;43162;51.040;18.244;2023-03-25T08:16:17;3.50;;;1.80;;
57327;SDS011;43162;51.040;18.244;2023-03-25T08:18:43;4.60;;;2.00;;
57327;SDS011;43162;51.040;18.244;2023-03-25T08:21:12;4.30;;;1.60;;
57327;SDS011;43162;51.040;18.244;2023-03-25T08:23:37;2.40;;;1.30;;
57327;SDS011;43162;51.040;18.244;2023-03-25T08:26:03;5.30;;;2.20;;
57327;SDS011;43162;51.040;18.244;2023-03-25T08:28:30;6.50;;;1.80;;
57327;SDS011;43162;51.040;18.244;2023-03-25T08:30:56;3.50;;;2.00;;
57327;SDS011;43162;51.040;18.244;2023-03-25T08:33:23;4.10;;;1.60;;
57327;SDS011;43162;51.040;18.244;2023-03-25T08:35:59;5.70;;;2.10;;
57327;SDS011;43162;51.040;18.244;2023-03-25T08:38:26;5.50;;;1.70;;
57327;SDS011;43162;51.040;18.244;2023-03-25T08:40:58;7.20;;;1.70;;
57327;SDS011;43162;51.040;18.244;2023-03-25T08:43:24;4.40;;;1.70;;
57327;SDS011;43162;51.040;18.244;2023-03-25T08:45:50;5.30;;;2.20;;
57327;SDS011;43162;51.040;18.244;2023-03-25T08:48:16;3.20;;;1.60;;
57327;SDS011;43162;51.040;18.244;2023-03-25T08:50:41;6.90;;;2.20;;
57327;SDS011;43162;51.040;18.244;2023-03-25T08:53:07;3.70;;;1.60;;
57327;SDS011;43162;51.040;18.244;2023-03-25T08:55:33;4.20;;;1.20;;
57327;SDS011;43162;51.040;18.244;2023-03-25T08:58:03;5.00;;;1.40;;
57327;SDS011;43162;51.040;18.244;2023-03-25T09:00:29;6.60;;;1.60;;
57327;SDS011;43162;51.040;18.244;2023-03-25T09:02:55;3.20;;;1.40;;
57327;SDS011;43162;51.040;18.244;2023-03-25T09:05:23;4.60;;;1.90;;
57327;SDS011;43162;51.040;18.244;2023-03-25T09:07:49;3.70;;;1.50;;
57327;SDS011;43162;51.040;18.244;2023-03-25T09:10:15;4.40;;;1.20;;
57327;SDS011;43162;51.040;18.244;2023-03-25T09:12:40;4.10;;;1.50;;
57327;SDS011;43162;51.040;18.244;2023-03-25T09:15:07;2.60;;;1.60;;
57327;SDS011;43162;51.040;18.244;2023-03-25T09:17:33;5.40;;;1.20;;
57327;SDS011;43162;51.040;18.244;2023-03-25T09:19:59;1.60;;;1.20;;
57327;SDS011;43162;51.040;18.244;2023-03-25T09:22:24;1.60;;;1.20;;
57327;SDS011;43162;51.040;18.244;2023-03-25T09:24:50;0.80;;;0.60;;
57327;SDS011;43162;51.040;18.244;2023-03-25T09:27:16;3.60;;;0.80;;
57327;SDS011;43162;51.040;18.244;2023-03-25T09:29:42;2.10;;;0.70;;
57327;SDS011;43162;51.040;18.244;2023-03-25T09:32:07;2.80;;;0.80;;
57327;SDS011;43162;51.040;18.244;2023-03-25T09:34:33;2.30;;;0.70;;
57327;SDS011;43162;51.040;18.244;2023-03-25T09:37:00;1.20;;;0.90;;
57327;SDS011;43162;51.040;18.244;2023-03-25T09:39:27;3.10;;;1.40;;
57327;SDS011;43162;51.040;18.244;2023-03-25T09:42:06;2.90;;;1.20;;
57327;SDS011;43162;51.040;18.244;2023-03-25T09:44:37;2.20;;;1.00;;
57327;SDS011;43162;51.040;18.244;2023-03-25T09:47:11;2.60;;;1.10;;
57327;SDS011;43162;51.040;18.244;2023-03-25T09:49:39;2.20;;;0.90;;
57327;SDS011;43162;51.040;18.244;2023-03-25T09:52:09;4.20;;;1.30;;
57327;SDS011;43162;51.040;18.244;2023-03-25T09:54:41;2.50;;;1.30;;
57327;SDS011;43162;51.040;18.244;2023-03-25T09:57:12;1.80;;;1.20;;
57327;SDS011;43162;51.040;18.244;2023-03-25T09:59:41;3.30;;;1.50;;
57327;SDS011;43162;51.040;18.244;2023-03-25T10:04:52;2.10;;;1.50;;
57327;SDS011;43162;51.040;18.244;2023-03-25T10:20:51;2.00;;;1.10;;
57327;SDS011;43162;51.040;18.244;2023-03-25T10:26:11;1.90;;;0.90;;
57327;SDS011;43162;51.040;18.244;2023-03-25T10:29:24;2.50;;;0.80;;
57327;SDS011;43162;51.040;18.244;2023-03-25T10:31:53;2.20;;;1.00;;
57327;SDS011;43162;51.040;18.244;2023-03-25T10:34:46;2.00;;;0.90;;
57327;SDS011;43162;51.040;18.244;2023-03-25T10:37:16;5.70;;;1.70;;
57327;SDS011;43162;51.040;18.244;2023-03-25T10:39:48;3.40;;;0.90;;
57327;SDS011;43162;51.040;18.244;2023-03-25T10:45:11;2.70;;;1.00;;
57327;SDS011;43162;51.040;18.244;2023-03-25T10:47:38;2.50;;;0.90;;
57327;SDS011;43162;51.040;18.244;2023-03-25T10:50:05;1.50;;;1.00;;
57327;SDS011;43162;51.040;18.244;2023-03-25T10:52:31;5.10;;;1.20;;
57327;SDS011;43162;51.040;18.244;2023-03-25T10:54:56;2.40;;;1.10;;
57327;SDS011;43162;51.040;18.244;2023-03-25T10:57:24;4.30;;;0.90;;
57327;SDS011;43162;51.040;18.244;2023-03-25T10:59:55;1.30;;;0.50;;
57327;SDS011;43162;51.040;18.244;2023-03-25T11:02:23;2.30;;;0.40;;
57327;SDS011;43162;51.040;18.244;2023-03-25T11:04:51;1.50;;;0.50;;
57327;SDS011;43162;51.040;18.244;2023-03-25T11:10:13;1.70;;;0.80;;
57327;SDS011;43162;51.040;18.244;2023-03-25T11:15:15;0.60;;;0.40;;
57327;SDS011;43162;51.040;18.244;2023-03-25T11:17:42;2.30;;;1.10;;
57327;SDS011;43162;51.040;18.244;2023-03-25T11:20:15;3.80;;;0.90;;
57327;SDS011;43162;51.040;18.244;2023-03-25T11:22:44;1.40;;;0.60;;
57327;SDS011;43162;51.040;18.244;2023-03-25T11:25:17;1.80;;;0.80;;
57327;SDS011;43162;51.040;18.244;2023-03-25T11:27:51;2.90;;;0.70;;
57327;SDS011;43162;51.040;18.244;2023-03-25T11:30:20;2.60;;;0.80;;
57327;SDS011;43162;51.040;18.244;2023-03-25T11:32:55;1.00;;;0.50;;
57327;SDS011;43162;51.040;18.244;2023-03-25T11:35:28;1.10;;;0.60;;
57327;SDS011;43162;51.040;18.244;2023-03-25T11:37:57;1.70;;;0.80;;
57327;SDS011;43162;51.040;18.244;2023-03-25T11:40:28;4.60;;;0.80;;
57327;SDS011;43162;51.040;18.244;2023-03-25T11:42:56;0.80;;;0.70;;
57327;SDS011;43162;51.040;18.244;2023-03-25T11:45:24;2.00;;;0.90;;
57327;SDS011;43162;51.040;18.244;2023-03-25T11:47:57;1.10;;;0.50;;
57327;SDS011;43162;51.040;18.244;2023-03-25T11:50:26;4.50;;;0.80;;
57327;SDS011;43162;51.040;18.244;2023-03-25T11:52:56;2.80;;;0.80;;
57327;SDS011;43162;51.040;18.244;2023-03-25T12:05:27;1.10;;;0.70;;
57327;SDS011;43162;51.040;18.244;2023-03-25T12:07:59;1.60;;;0.90;;
57327;SDS011;43162;51.040;18.244;2023-03-25T12:13:38;1.10;;;0.50;;
57327;SDS011;43162;51.040;18.244;2023-03-25T12:18:54;2.40;;;0.60;;
57327;SDS011;43162;51.040;18.244;2023-03-25T12:29:38;0.20;;;0.20;;
57327;SDS011;43162;51.040;18.244;2023-03-25T12:43:04;1.20;;;0.50;;
57327;SDS011;43162;51.040;18.244;2023-03-25T12:53:48;1.40;;;0.70;;
57327;SDS011;43162;51.040;18.244;2023-03-25T12:56:42;1.10;;;0.80;;
57327;SDS011;43162;51.040;18.244;2023-03-25T12:59:15;2.60;;;0.60;;
57327;SDS011;43162;51.040;18.244;2023-03-25T13:07:25;1.50;;;0.80;;
57327;SDS011;43162;51.040;18.244;2023-03-25T13:09:59;0.90;;;0.70;;
57327;SDS011;43162;51.040;18.244;2023-03-25T13:12:38;2.70;;;1.10;;
57327;SDS011;43162;51.040;18.244;2023-03-25T13:15:19;1.20;;;0.60;;
57327;SDS011;43162;51.040;18.244;2023-03-25T13:17:49;3.10;;;0.80;;
57327;SDS011;43162;51.040;18.244;2023-03-25T13:20:15;0.80;;;0.60;;
57327;SDS011;43162;51.040;18.244;2023-03-25T13:22:45;1.40;;;0.80;;
57327;SDS011;43162;51.040;18.244;2023-03-25T13:25:17;3.00;;;0.80;;
57327;SDS011;43162;51.040;18.244;2023-03-25T13:27:57;1.20;;;0.80;;
57327;SDS011;43162;51.040;18.244;2023-03-25T13:30:32;1.80;;;1.00;;
57327;SDS011;43162;51.040;18.244;2023-03-25T13:33:06;0.90;;;0.60;;
57327;SDS011;43162;51.040;18.244;2023-03-25T13:35:40;3.60;;;1.50;;
57327;SDS011;43162;51.040;18.244;2023-03-25T13:46:28;1.60;;;0.40;;
57327;SDS011;43162;51.040;18.244;2023-03-25T13:49:17;2.70;;;0.70;;
57327;SDS011;43162;51.040;18.244;2023-03-25T13:51:48;1.40;;;0.90;;
57327;SDS011;43162;51.040;18.244;2023-03-25T13:54:31;1.50;;;0.70;;
57327;SDS011;43162;51.040;18.244;2023-03-25T14:13:13;1.00;;;0.50;;
57327;SDS011;43162;51.040;18.244;2023-03-25T14:15:50;1.30;;;0.40;;
57327;SDS011;43162;51.040;18.244;2023-03-25T14:18:22;1.90;;;0.70;;
57327;SDS011;43162;51.040;18.244;2023-03-25T14:20:48;2.60;;;0.60;;
57327;SDS011;43162;51.040;18.244;2023-03-25T14:23:16;3.60;;;0.60;;
57327;SDS011;43162;51.040;18.244;2023-03-25T14:25:47;0.90;;;0.30;;
57327;SDS011;43162;51.040;18.244;2023-03-25T14:28:18;1.80;;;0.70;;
57327;SDS011;43162;51.040;18.244;2023-03-25T14:36:30;1.20;;;0.70;;
57327;SDS011;43162;51.040;18.244;2023-03-25T14:44:27;0.70;;;0.20;;
57327;SDS011;43162;51.040;18.244;2023-03-25T14:47:00;0.20;;;0.20;;
57327;SDS011;43162;51.040;18.244;2023-03-25T14:55:43;0.20;;;0.20;;
57327;SDS011;43162;51.040;18.244;2023-03-25T14:58:20;0.90;;;0.10;;
57327;SDS011;43162;51.040;18.244;2023-03-25T15:03:40;0.20;;;0.20;;
57327;SDS011;43162;51.040;18.244;2023-03-25T15:06:31;0.10;;;0.10;;
57327;SDS011;43162;51.040;18.244;2023-03-25T15:08:58;0.20;;;0.20;;
57327;SDS011;43162;51.040;18.244;2023-03-25T15:11:33;0.10;;;0.10;;
57327;SDS011;43162;51.040;18.244;2023-03-25T15:14:02;0.50;;;0.20;;
57327;SDS011;43162;51.040;18.244;2023-03-25T15:19:00;0.70;;;0.30;;
57327;SDS011;43162;51.040;18.244;2023-03-25T15:21:31;0.80;;;0.40;;
57327;SDS011;43162;51.040;18.244;2023-03-25T15:24:01;0.50;;;0.40;;
57327;SDS011;43162;51.040;18.244;2023-03-25T15:40:10;0.40;;;0.40;;
57327;SDS011;43162;51.040;18.244;2023-03-25T15:50:37;0.50;;;0.40;;
57327;SDS011;43162;51.040;18.244;2023-03-25T15:53:24;0.80;;;0.50;;
57327;SDS011;43162;51.040;18.244;2023-03-25T15:55:54;0.40;;;0.30;;
57327;SDS011;43162;51.040;18.244;2023-03-25T16:01:35;0.40;;;0.40;;
57327;SDS011;43162;51.040;18.244;2023-03-25T16:06:28;1.10;;;0.50;;
57327;SDS011;43162;51.040;18.244;2023-03-25T16:08:55;1.00;;;0.30;;
57327;SDS011;43162;51.040;18.244;2023-03-25T16:11:24;0.30;;;0.20;;
57327;SDS011;43162;51.040;18.244;2023-03-25T16:16:27;3.20;;;0.20;;
57327;SDS011;43162;51.040;18.244;2023-03-25T16:18:59;0.80;;;0.30;;
57327;SDS011;43162;51.040;18.244;2023-03-25T16:21:27;1.10;;;0.20;;
57327;SDS011;43162;51.040;18.244;2023-03-25T16:23:53;0.90;;;0.30;;
57327;SDS011;43162;51.040;18.244;2023-03-25T16:26:37;0.30;;;0.20;;
57327;SDS011;43162;51.040;18.244;2023-03-25T16:29:24;1.40;;;0.60;;
57327;SDS011;43162;51.040;18.244;2023-03-25T16:31:51;3.20;;;0.90;;
57327;SDS011;43162;51.040;18.244;2023-03-25T16:34:21;2.10;;;0.40;;
57327;SDS011;43162;51.040;18.244;2023-03-25T16:36:48;1.20;;;0.50;;
57327;SDS011;43162;51.040;18.244;2023-03-25T16:39:15;1.00;;;0.40;;
57327;SDS011;43162;51.040;18.244;2023-03-25T16:41:46;1.20;;;0.70;;
57327;SDS011;43162;51.040;18.244;2023-03-25T16:44:15;1.00;;;0.60;;
57327;SDS011;43162;51.040;18.244;2023-03-25T16:46:42;0.90;;;0.50;;
57327;SDS011;43162;51.040;18.244;2023-03-25T16:49:13;0.90;;;0.50;;
57327;SDS011;43162;51.040;18.244;2023-03-25T16:51:45;1.20;;;0.50;;
57327;SDS011;43162;51.040;18.244;2023-03-25T16:57:12;1.40;;;0.60;;
57327;SDS011;43162;51.040;18.244;2023-03-25T16:59:44;1.20;;;0.80;;
57327;SDS011;43162;51.040;18.244;2023-03-25T17:05:22;2.70;;;0.50;;
57327;SDS011;43162;51.040;18.244;2023-03-25T17:07:57;2.80;;;0.80;;
57327;SDS011;43162;51.040;18.244;2023-03-25T17:10:29;1.50;;;1.10;;
57327;SDS011;43162;51.040;18.244;2023-03-25T17:13:03;3.00;;;1.40;;
57327;SDS011;43162;51.040;18.244;2023-03-25T17:15:32;2.40;;;1.60;;
57327;SDS011;43162;51.040;18.244;2023-03-25T17:17:58;1.80;;;0.70;;
57327;SDS011;43162;51.040;18.244;2023-03-25T17:23:17;2.10;;;1.00;;
57327;SDS011;43162;51.040;18.244;2023-03-25T17:25:59;2.50;;;1.10;;
57327;SDS011;43162;51.040;18.244;2023-03-25T17:28:36;2.80;;;1.10;;
57327;SDS011;43162;51.040;18.244;2023-03-25T17:34:04;2.70;;;1.00;;
57327;SDS011;43162;51.040;18.244;2023-03-25T17:36:37;1.20;;;0.60;;
57327;SDS011;43162;51.040;18.244;2023-03-25T17:39:06;1.20;;;0.50;;
57327;SDS011;43162;51.040;18.244;2023-03-25T17:41:45;2.00;;;0.60;;
57327;SDS011;43162;51.040;18.244;2023-03-25T17:44:13;1.40;;;0.50;;
57327;SDS011;43162;51.040;18.244;2023-03-25T17:46:41;0.70;;;0.40;;
57327;SDS011;43162;51.040;18.244;2023-03-25T17:49:12;1.60;;;0.60;;
57327;SDS011;43162;51.040;18.244;2023-03-25T17:51:40;1.00;;;0.60;;
57327;SDS011;43162;51.040;18.244;2023-03-25T17:54:07;1.10;;;0.40;;
57327;SDS011;43162;51.040;18.244;2023-03-25T17:56:32;2.10;;;0.50;;
57327;SDS011;43162;51.040;18.244;2023-03-25T17:59:02;1.90;;;0.50;;
57327;SDS011;43162;51.040;18.244;2023-03-25T18:01:30;1.30;;;0.40;;
57327;SDS011;43162;51.040;18.244;2023-03-25T18:03:56;0.80;;;0.50;;
57327;SDS011;43162;51.040;18.244;2023-03-25T18:06:22;1.00;;;0.50;;
57327;SDS011;43162;51.040;18.244;2023-03-25T18:08:48;1.10;;;0.50;;
57327;SDS011;43162;51.040;18.244;2023-03-25T18:11:14;1.60;;;0.70;;